Terminal Aerodrome Forecast
Issued by NWS

Home | Current Version | Previous Version | Text Only | Print | Product List | Glossary Off
Versions: 1 2 3 4 5 6 7 8 9 10 11 12 13 14 15 16 17 18 19 20 21 22 23

000
FTUS43 KBIS 220520
TAFDIK
TAF
KDIK 220520Z 2206/2306 16005KT P6SM BKN200
     FM221300 21010KT P6SM OVC100 WS020/28035KT
     FM221500 23012KT P6SM BKN150 WS020/29045KT
     FM221700 28018G28KT P6SM SCT250
     FM222300 31012KT P6SM FEW250=

USA.gov is the U.S. government's official web portal to all federal, state and local government web resources and services.